Blowing Sand Mountains, Nevada Weather observations

Data are for observation ending at time listed.
 Day   Time    Ave.   Ave.  Ave.  Vector   Max.   Stn.    Total    Solar   Ave.  
  of    of     Air    Rel.  Wind   Wind    Wind   Baro.  Precip.   Rad.    Soil  
Year   Day     Temp.  Hum.  Speed  Dir.    Gust   Pres.                    Temp. 
2014   (PST)    F      %     mph   deg.    mph     mb.     in.     W/m2     F   
------------------------------------------------------------------------------
 241   10:30   85.0    15    1.7   217      4.5    881.3     0.00     471    999.0
 241   10:40   86.9    14    1.2     8      4.4    881.2     0.00     760    999.0
 241   10:50   86.3    14    3.4   311      9.0    881.1     0.00     644    999.0
 241   11:00   85.2    14    3.4   264      6.2    880.9     0.00     472    999.0
 241   11:10   85.8    14    2.3   186      5.8    880.8     0.00     514    999.0
 241   11:20   87.0    14    2.7   252      5.8    880.8     0.00     525    999.0
 241   11:30   86.0    14    5.0   249      9.4    880.9     0.00     607    999.0
 241   11:40   86.4    14    2.5   267      6.1    880.7     0.00     697    999.0
 241   11:50   87.0    14    2.0   311      7.4    880.6     0.00     701    999.0
 241   12:00   88.3    13    2.6    15      7.6    880.4     0.00     748    999.0
 241   12:10   88.2    13    4.5    12      7.7    880.3     0.00     904    999.0
 241   12:20   88.3    13    2.8     8      8.0    880.2     0.00     677    999.0
 241   12:30   89.3    12    3.2   211      7.0    880.1     0.00     678    999.0
 241   12:40   89.9    12    4.0   187      6.5    880.0     0.00     505    999.0
 241   12:50   89.7    12    2.3   124      6.4    879.9     0.00     519    999.0
 241   13:00   89.6    12    3.4    25      6.8    879.9     0.00     562    999.0
 241   13:10   88.0    12    4.7   293     11.3    879.8     0.00     347    999.0
 241   13:20   88.1    12    4.5   358      9.1    879.7     0.00     230    999.0
 241   13:30   87.8    12    4.0   344      7.4    879.5     0.00     162    999.0
 241   13:40   87.6    12    3.7    13      8.8    879.5     0.00     227    999.0
 241   13:50   89.0    12    1.2    82      4.1    879.4     0.00     499    999.0
 241   14:00   90.1    12    2.1   117      5.5    879.2     0.00     449    999.0
 241   14:10   90.7    11    1.7   170      4.7    879.1     0.00     389    999.0
 241   14:20   91.1    11    1.7   233      3.7    878.9     0.00     592    999.0
 241   14:30   91.7    11    3.1   281      6.3    878.8     0.00     818    999.0
 241   14:40   92.0    10    3.6   343      8.8    878.6     0.00     664    999.0
 241   14:50   90.7    11    4.3   349     10.5    878.5     0.00     306    999.0
 241   15:00   89.9    11    5.6   335      9.0    878.4     0.00     316    999.0
 241   15:10   90.2    11    5.3   331     11.0    878.2     0.00     442    999.0
 241   15:20   91.1    10    5.8   332     11.4    878.2     0.00     663    999.0
 241   15:30   91.2    10    6.6   310     11.2    878.2     0.00     408    999.0
 241   15:40   91.6     8    7.4   276     13.2    878.2     0.00     493    999.0
 241   15:50   91.3     8    8.5   288     15.8    878.2     0.00     258    999.0
 241   16:00   91.0     8    7.0   272     12.2    878.2     0.00     218    999.0
 241   16:10   91.3     8   10.0   286     15.9    878.1     0.00     188    999.0
 241   16:20   90.7     8    8.3   300     13.9    878.1     0.00     168    999.0
 241   16:30   90.8     7    9.9   294     14.7    878.2     0.00     135    999.0
 241   16:40   90.5     8    9.6   284     14.0    878.2     0.00     113    999.0
 241   16:50   90.1     8    9.0   289     12.8    878.1     0.00      88    999.0
 241   17:00   89.9     8    8.5   291     11.6    878.1     0.00      98    999.0
 241   17:10   89.7     9    7.8   298      9.9    878.1     0.00      72    999.0
 241   17:20   89.6     9    7.0   297      9.6    878.0     0.00      89    999.0
 241   17:30   89.3     9    8.2   304     11.1    878.0     0.00      51    999.0
 241   17:40   89.0     9    6.3   325     13.2    878.0     0.00      71    999.0
 241   17:50   88.6     8    6.4   332      9.3    878.0     0.00      48    999.0
 241   18:00   88.0     8    7.0   329     11.8    878.0     0.00      28    999.0
 241   18:10   87.5     8   10.0   317     15.2    878.0     0.00      17    999.0
 241   18:20   87.1     8   10.4   317     14.1    878.0     0.00       5    999.0
 241   18:30   86.2     9    7.9   315     11.8    878.2     0.00       3    999.0
 241   18:40   85.5     9    8.2   313     11.4    878.3     0.00       2    999.0
 241   18:50   85.3    10    8.4   315     12.3    878.5     0.00       1    999.0
 241   19:00   84.8    10    6.8   325     11.1    878.6     0.00       0    999.0
 241   19:10   84.4    10    5.4   319      7.4    878.7     0.00       0    999.0
 241   19:20   83.9    10    6.1   320      9.5    878.9     0.00       0    999.0
 241   19:30   83.6    11    8.2   320     10.8    879.0     0.00       0    999.0
 241   19:40   83.0    10    8.1   318     11.0    879.1     0.00       0    999.0
 241   19:50   82.5    11    7.8   305     12.1    879.2     0.00       0    999.0
 241   20:00   81.3    12    4.5   312      7.3    879.3     0.00       0    999.0
 241   20:10   82.1    12    7.6   309     11.2    879.4     0.00       0    999.0
 241   20:20   82.2    12    6.4   313     10.7    879.7     0.00       0    999.0
 241   20:30   82.3    12    6.2   334      8.7    879.7     0.00       0    999.0
 241   20:40   82.4    12    5.9   338     10.8    879.7     0.00       0    999.0
 241   20:50   82.4    12    6.5   325     10.6    879.8     0.00       0    999.0
 241   21:00   82.1    12    7.6   349     11.0    879.8     0.00       0    999.0
 241   21:10   82.0    12    8.0    13     10.9    879.6     0.00       0    999.0
 241   21:20   80.9    12    8.5    29     12.1    879.5     0.00       0    999.0
 241   21:30   79.6    12   10.8     7     18.0    879.6     0.00       0    999.0
 241   21:40   79.4    12   11.4     8     15.9    879.5     0.00       0    999.0
 241   21:50   79.4    12   11.0   359     16.7    879.2     0.00       0    999.0
 241   22:00   80.1    12   12.4   343     18.1    879.3     0.00       0    999.0
 241   22:10   79.6    12   10.3   329     16.5    879.6     0.00       0    999.0
 241   22:20   79.4    12   10.6   337     14.9    879.7     0.00       0    999.0
 241   22:30   79.1    12    9.0   327     13.0    879.5     0.00       0    999.0
 241   22:40   78.2    13    5.2   300     10.2    879.8     0.00       0    999.0
 241   22:50   77.2    13    1.7   311      4.2    879.9     0.00       0    999.0
 241   23:00   77.3    13    2.6   338      6.9    879.9     0.00       0    999.0
 241   23:10   76.7    14    1.1   119      4.4    880.0     0.00       0    999.0
 241   23:20   76.4    14    4.1   108      5.6    879.9     0.00       0    999.0
 241   23:30   74.9    14    1.8   134      2.9    880.0     0.00       0    999.0
 241   23:40   73.0    15    1.9   182      2.7    880.0     0.00       0    999.0
 241   23:50   73.1    15    0.9   263      3.7    880.1     0.00       0    999.0
 242    0:00   72.7    15    1.1   178      2.9    880.1     0.00       0    999.0
 242    0:10   72.2    16    2.1    79      4.6    880.1     0.00       0    999.0
 242    0:20   73.8    15    3.9    49      6.1    880.0     0.00       0    999.0
 242    0:30   71.9    16    2.6   348      4.3    879.9     0.00       0    999.0
 242    0:40   69.5    18    2.0   283      3.0    879.9     0.00       0    999.0
 242    0:50   69.6    17    1.3   312      2.9    879.8     0.00       0    999.0
 242    1:00   69.1    18    0.5   160      2.3    879.6     0.00       0    999.0
 242    1:10   68.8    18    1.6   232      2.7    879.7     0.00       0    999.0
 242    1:20   70.1    17    2.9   298      3.7    879.6     0.00       0    999.0
 242    1:30   68.7    18    2.3   337      3.1    879.6     0.00       0    999.0
 242    1:40   67.4    18    1.3     8      3.3    879.5     0.00       0    999.0
 242    1:50   66.9    19    2.0    11      3.5    879.6     0.00       0    999.0
 242    2:00   66.0    19    0.6   228      2.0    879.8     0.00       0    999.0
 242    2:10   66.1    19    0.4   279      1.4    879.8     0.00       0    999.0
 242    2:20   65.8    19    1.8   248      2.8    879.9     0.00       0    999.0
 242    2:30   65.5    19    3.5   224      6.4    879.9     0.00       0    999.0
 242    2:40   65.2    19    3.2   194      5.8    880.0     0.00       0    999.0
 242    2:50   65.2    20    1.7    61      4.2    880.0     0.00       0    999.0
 242    3:00   65.3    20    3.2    94      4.2    879.9     0.00       0    999.0
 242    3:10   65.9    20    1.7   131      3.2    879.8     0.00       0    999.0
 242    3:20   65.7    20    3.6   163      4.7    879.5     0.00       0    999.0
 242    3:30   66.1    20    4.2   186      5.4    879.5     0.00       0    999.0
 242    3:40   65.7    20    4.4   195      6.7    879.7     0.00       0    999.0
 242    3:50   65.5    20    1.9   129      5.0    879.8     0.00       0    999.0
 242    4:00   65.0    21    3.7    27      5.3    879.9     0.00       0    999.0
 242    4:10   65.7    20    2.6    78      4.7    879.9     0.00       0    999.0
 242    4:20   65.3    20    3.1   129      3.7    879.8     0.00       0    999.0
 242    4:30   65.3    21    4.0   102      4.7    879.7     0.00       0    999.0
 242    4:40   65.4    21    3.1   100      4.6    879.7     0.00       0    999.0
 242    4:50   65.8    20    3.4   106      4.5    879.6     0.00       0    999.0
 242    5:00   66.1    20    4.0    92      6.1    879.6     0.00       0    999.0
 242    5:10   66.1    21    1.4    58      2.8    879.7     0.00       0    999.0
 242    5:20   65.7    21    1.5   135      2.6    879.7     0.00       1    999.0
 242    5:30   62.6    21    3.1   283      4.9    879.9     0.00       2    999.0
 242    5:40   60.6    23    2.6   292      3.5    880.0     0.00       7    999.0
 242    5:50   60.1    23    0.9   319      2.2    880.1     0.00      12    999.0
 242    6:00   59.3    24    0.0     0      0.0    880.2     0.00      16    999.0
 242    6:10   59.5    24    1.2    75      2.7    880.2     0.00      48    999.0
 242    6:20   59.8    24    2.8    97      3.7    880.3     0.00      64    999.0
 242    6:30   62.0    23    2.4    76      3.2    880.4     0.00     173    999.0
 242    6:40   65.1    21    1.1    46      2.2    880.4     0.00     203    999.0
 242    6:50   67.4    19    1.1   292      4.1    880.5     0.00     236    999.0
 242    7:00   67.5    19    0.5   294      2.3    880.4     0.00     270    999.0
 242    7:10   70.7    17    1.4   198      2.9    880.4     0.00     306    999.0
 242    7:20   69.6    18    3.5   230      5.4    880.4     0.00     343    999.0
 242    7:30   69.2    18    4.3   247      6.3    880.5     0.00     379    999.0
 242    7:40   71.4    17    1.1   274      3.6    880.3     0.00     415    999.0
 242    7:50   76.0    14    0.5   173      2.4    880.1     0.00     452    999.0
 242    8:00   76.5    14    2.2   229      4.2    880.0     0.00     489    999.0
 242    8:10   75.6    14    2.3   233      4.2    879.9     0.00     525    999.0
 242    8:20   76.4    14    2.7   292      5.1    879.9     0.00     557    999.0
 242    8:30   77.1    14    3.2   298      5.7    880.0     0.00     590    999.0
 242    8:40   78.2    13    3.6   298      6.1    880.0     0.00     622    999.0
 242    8:50   79.2    13    3.6   305      7.1    880.0     0.00     652    999.0
 242    9:00   80.6    12    4.9   314      8.3    880.0     0.00     679    999.0
 242    9:10   81.1    12    4.5   332      9.6    880.0     0.00     705    999.0
 242    9:20   82.1    12   10.7    12     17.0    879.9     0.00     732    999.0
 242    9:30   81.4    13   10.4    14     16.3    879.9     0.00     761    999.0
 242    9:40   81.9    12    7.5     4     13.8    879.8     0.00     785    999.0
 242    9:50   82.5    12    7.4    15     13.7    879.8     0.00     806    999.0
 242   10:00   83.1    12    5.9    20     16.2    879.8     0.00     827    999.0
 242   10:10   84.0    11    6.7     1     13.4    879.7     0.00     845    999.0
 242   10:20   84.1    11    5.5    25      9.2    879.4     0.00     864    999.0

Return to Blowing Sand Mountains graphs page.


Western Regional Climate Center,wrcc@dri.edu